sensor_id;sensor_type;location;lat;lon;timestamp;P1;durP1;ratioP1;P2;durP2;ratioP2
10403;SDS011;5248;47.374;8.486;2023-04-03T00:02:23;4.50;;;4.10;;
10403;SDS011;5248;47.374;8.486;2023-04-03T00:04:51;4.50;;;4.20;;
10403;SDS011;5248;47.374;8.486;2023-04-03T00:07:20;4.73;;;4.43;;
10403;SDS011;5248;47.374;8.486;2023-04-03T00:09:46;5.33;;;4.87;;
10403;SDS011;5248;47.374;8.486;2023-04-03T00:12:13;5.37;;;4.97;;
10403;SDS011;5248;47.374;8.486;2023-04-03T00:14:40;6.23;;;5.40;;
10403;SDS011;5248;47.374;8.486;2023-04-03T00:17:07;5.70;;;5.30;;
10403;SDS011;5248;47.374;8.486;2023-04-03T00:19:33;5.20;;;4.80;;
10403;SDS011;5248;47.374;8.486;2023-04-03T00:22:02;5.70;;;5.30;;
10403;SDS011;5248;47.374;8.486;2023-04-03T00:24:28;5.17;;;4.77;;
10403;SDS011;5248;47.374;8.486;2023-04-03T00:26:54;4.90;;;4.50;;
10403;SDS011;5248;47.374;8.486;2023-04-03T00:29:21;5.00;;;4.60;;
10403;SDS011;5248;47.374;8.486;2023-04-03T00:31:47;5.10;;;4.70;;
10403;SDS011;5248;47.374;8.486;2023-04-03T00:34:14;4.17;;;3.87;;
10403;SDS011;5248;47.374;8.486;2023-04-03T00:36:40;3.60;;;3.40;;
10403;SDS011;5248;47.374;8.486;2023-04-03T00:39:08;3.97;;;3.60;;
10403;SDS011;5248;47.374;8.486;2023-04-03T00:41:35;3.57;;;3.37;;
10403;SDS011;5248;47.374;8.486;2023-04-03T00:46:45;4.03;;;3.73;;
10403;SDS011;5248;47.374;8.486;2023-04-03T00:49:11;4.37;;;4.07;;
10403;SDS011;5248;47.374;8.486;2023-04-03T00:51:39;4.83;;;4.53;;
10403;SDS011;5248;47.374;8.486;2023-04-03T00:54:06;4.43;;;4.13;;
10403;SDS011;5248;47.374;8.486;2023-04-03T00:56:34;4.30;;;4.00;;
10403;SDS011;5248;47.374;8.486;2023-04-03T00:59:03;4.60;;;4.30;;
10403;SDS011;5248;47.374;8.486;2023-04-03T01:01:31;4.23;;;3.93;;
10403;SDS011;5248;47.374;8.486;2023-04-03T01:03:58;4.20;;;3.80;;
10403;SDS011;5248;47.374;8.486;2023-04-03T01:06:26;4.30;;;3.93;;
10403;SDS011;5248;47.374;8.486;2023-04-03T01:08:57;4.03;;;3.73;;
10403;SDS011;5248;47.374;8.486;2023-04-03T01:11:25;4.33;;;4.03;;
10403;SDS011;5248;47.374;8.486;2023-04-03T01:14:00;6.83;;;4.70;;
10403;SDS011;5248;47.374;8.486;2023-04-03T01:16:27;5.10;;;4.70;;
10403;SDS011;5248;47.374;8.486;2023-04-03T01:18:56;5.07;;;4.67;;
10403;SDS011;5248;47.374;8.486;2023-04-03T01:21:36;4.97;;;4.57;;
10403;SDS011;5248;47.374;8.486;2023-04-03T01:24:19;4.83;;;4.33;;
10403;SDS011;5248;47.374;8.486;2023-04-03T01:26:49;4.97;;;4.63;;
10403;SDS011;5248;47.374;8.486;2023-04-03T01:29:17;4.67;;;4.37;;
10403;SDS011;5248;47.374;8.486;2023-04-03T01:31:50;4.57;;;4.27;;
10403;SDS011;5248;47.374;8.486;2023-04-03T01:34:18;4.67;;;4.37;;
10403;SDS011;5248;47.374;8.486;2023-04-03T01:36:45;5.33;;;4.93;;
10403;SDS011;5248;47.374;8.486;2023-04-03T01:39:11;4.70;;;4.40;;
10403;SDS011;5248;47.374;8.486;2023-04-03T01:41:38;4.50;;;4.20;;
10403;SDS011;5248;47.374;8.486;2023-04-03T01:44:05;5.40;;;5.00;;
10403;SDS011;5248;47.374;8.486;2023-04-03T01:46:32;4.77;;;4.47;;
10403;SDS011;5248;47.374;8.486;2023-04-03T01:49:00;4.77;;;4.40;;
10403;SDS011;5248;47.374;8.486;2023-04-03T01:51:27;4.80;;;4.40;;
10403;SDS011;5248;47.374;8.486;2023-04-03T01:53:54;4.90;;;4.60;;
10403;SDS011;5248;47.374;8.486;2023-04-03T01:56:21;5.17;;;4.77;;
10403;SDS011;5248;47.374;8.486;2023-04-03T01:58:48;4.80;;;4.40;;
10403;SDS011;5248;47.374;8.486;2023-04-03T02:01:14;4.97;;;4.67;;
10403;SDS011;5248;47.374;8.486;2023-04-03T02:03:41;5.43;;;5.03;;
10403;SDS011;5248;47.374;8.486;2023-04-03T02:06:09;4.97;;;4.57;;
10403;SDS011;5248;47.374;8.486;2023-04-03T02:08:35;5.87;;;5.37;;
10403;SDS011;5248;47.374;8.486;2023-04-03T02:11:02;6.00;;;5.50;;
10403;SDS011;5248;47.374;8.486;2023-04-03T02:13:28;5.27;;;4.87;;
10403;SDS011;5248;47.374;8.486;2023-04-03T02:15:55;5.27;;;4.87;;
10403;SDS011;5248;47.374;8.486;2023-04-03T02:18:21;5.63;;;5.13;;
10403;SDS011;5248;47.374;8.486;2023-04-03T02:20:48;5.60;;;5.13;;
10403;SDS011;5248;47.374;8.486;2023-04-03T02:23:16;6.00;;;5.60;;
10403;SDS011;5248;47.374;8.486;2023-04-03T02:25:43;6.10;;;5.60;;
10403;SDS011;5248;47.374;8.486;2023-04-03T02:28:10;6.77;;;6.17;;
10403;SDS011;5248;47.374;8.486;2023-04-03T02:30:36;5.90;;;5.40;;
10403;SDS011;5248;47.374;8.486;2023-04-03T02:33:03;6.03;;;5.53;;
10403;SDS011;5248;47.374;8.486;2023-04-03T02:35:30;6.20;;;5.70;;
10403;SDS011;5248;47.374;8.486;2023-04-03T02:37:56;6.00;;;5.43;;
10403;SDS011;5248;47.374;8.486;2023-04-03T02:40:24;7.03;;;6.40;;
10403;SDS011;5248;47.374;8.486;2023-04-03T02:42:50;6.10;;;5.60;;
10403;SDS011;5248;47.374;8.486;2023-04-03T02:45:16;5.60;;;5.20;;
10403;SDS011;5248;47.374;8.486;2023-04-03T02:47:43;6.10;;;5.60;;
10403;SDS011;5248;47.374;8.486;2023-04-03T02:50:09;5.23;;;4.83;;
10403;SDS011;5248;47.374;8.486;2023-04-03T02:52:36;5.73;;;5.33;;
10403;SDS011;5248;47.374;8.486;2023-04-03T02:55:03;6.30;;;5.00;;
10403;SDS011;5248;47.374;8.486;2023-04-03T02:57:32;5.43;;;5.03;;
10403;SDS011;5248;47.374;8.486;2023-04-03T03:00:00;4.87;;;4.57;;
10403;SDS011;5248;47.374;8.486;2023-04-03T03:02:27;5.20;;;4.80;;
10403;SDS011;5248;47.374;8.486;2023-04-03T03:04:54;4.57;;;4.27;;
10403;SDS011;5248;47.374;8.486;2023-04-03T03:07:20;4.10;;;3.80;;
10403;SDS011;5248;47.374;8.486;2023-04-03T03:09:46;4.77;;;4.47;;
10403;SDS011;5248;47.374;8.486;2023-04-03T03:12:13;3.77;;;3.47;;
10403;SDS011;5248;47.374;8.486;2023-04-03T03:14:41;4.40;;;4.10;;
10403;SDS011;5248;47.374;8.486;2023-04-03T03:17:08;4.30;;;4.00;;
10403;SDS011;5248;47.374;8.486;2023-04-03T03:19:34;4.60;;;4.20;;
10403;SDS011;5248;47.374;8.486;2023-04-03T03:22:01;3.57;;;3.37;;
10403;SDS011;5248;47.374;8.486;2023-04-03T03:24:27;4.07;;;3.70;;
10403;SDS011;5248;47.374;8.486;2023-04-03T03:26:53;3.77;;;3.57;;
10403;SDS011;5248;47.374;8.486;2023-04-03T03:29:20;4.30;;;4.00;;
10403;SDS011;5248;47.374;8.486;2023-04-03T03:31:48;4.43;;;4.13;;
10403;SDS011;5248;47.374;8.486;2023-04-03T03:34:15;4.50;;;4.20;;
10403;SDS011;5248;47.374;8.486;2023-04-03T03:36:41;4.50;;;4.20;;
10403;SDS011;5248;47.374;8.486;2023-04-03T03:39:07;4.60;;;4.30;;
10403;SDS011;5248;47.374;8.486;2023-04-03T03:41:34;4.43;;;3.97;;
10403;SDS011;5248;47.374;8.486;2023-04-03T03:44:01;4.53;;;4.23;;
10403;SDS011;5248;47.374;8.486;2023-04-03T03:46:27;5.10;;;4.70;;
10403;SDS011;5248;47.374;8.486;2023-04-03T03:48:55;4.57;;;4.23;;
10403;SDS011;5248;47.374;8.486;2023-04-03T03:51:22;4.50;;;4.20;;
10403;SDS011;5248;47.374;8.486;2023-04-03T03:53:49;4.70;;;4.40;;
10403;SDS011;5248;47.374;8.486;2023-04-03T03:56:15;5.17;;;4.80;;
10403;SDS011;5248;47.374;8.486;2023-04-03T03:58:42;5.10;;;4.70;;
10403;SDS011;5248;47.374;8.486;2023-04-03T04:01:08;4.90;;;4.50;;
10403;SDS011;5248;47.374;8.486;2023-04-03T04:03:35;5.70;;;5.20;;
10403;SDS011;5248;47.374;8.486;2023-04-03T04:06:03;5.30;;;4.90;;
10403;SDS011;5248;47.374;8.486;2023-04-03T04:08:30;5.90;;;5.40;;
10403;SDS011;5248;47.374;8.486;2023-04-03T04:10:56;5.70;;;5.13;;
10403;SDS011;5248;47.374;8.486;2023-04-03T04:13:23;6.03;;;5.57;;
10403;SDS011;5248;47.374;8.486;2023-04-03T04:15:49;5.30;;;4.90;;
10403;SDS011;5248;47.374;8.486;2023-04-03T04:18:16;5.80;;;5.40;;
10403;SDS011;5248;47.374;8.486;2023-04-03T04:20:44;6.17;;;5.67;;
10403;SDS011;5248;47.374;8.486;2023-04-03T04:23:12;5.30;;;4.90;;
10403;SDS011;5248;47.374;8.486;2023-04-03T04:25:39;6.10;;;5.60;;
10403;SDS011;5248;47.374;8.486;2023-04-03T04:28:05;5.73;;;5.33;;
10403;SDS011;5248;47.374;8.486;2023-04-03T04:30:34;5.93;;;5.43;;
10403;SDS011;5248;47.374;8.486;2023-04-03T04:33:03;5.70;;;5.30;;
10403;SDS011;5248;47.374;8.486;2023-04-03T04:35:30;6.33;;;5.20;;
10403;SDS011;5248;47.374;8.486;2023-04-03T04:37:56;6.10;;;5.60;;
10403;SDS011;5248;47.374;8.486;2023-04-03T04:40:24;5.53;;;5.13;;
10403;SDS011;5248;47.374;8.486;2023-04-03T04:42:51;5.50;;;5.10;;
10403;SDS011;5248;47.374;8.486;2023-04-03T04:45:20;5.90;;;5.40;;
10403;SDS011;5248;47.374;8.486;2023-04-03T04:47:47;5.37;;;4.97;;
10403;SDS011;5248;47.374;8.486;2023-04-03T04:50:16;6.20;;;5.70;;
10403;SDS011;5248;47.374;8.486;2023-04-03T04:52:43;5.97;;;5.47;;
10403;SDS011;5248;47.374;8.486;2023-04-03T04:55:09;5.77;;;5.37;;
10403;SDS011;5248;47.374;8.486;2023-04-03T04:57:37;5.80;;;5.30;;
10403;SDS011;5248;47.374;8.486;2023-04-03T05:00:04;5.80;;;5.40;;
10403;SDS011;5248;47.374;8.486;2023-04-03T05:02:31;6.20;;;5.60;;
10403;SDS011;5248;47.374;8.486;2023-04-03T05:04:58;5.60;;;5.20;;
10403;SDS011;5248;47.374;8.486;2023-04-03T05:07:24;5.73;;;5.23;;
10403;SDS011;5248;47.374;8.486;2023-04-03T05:09:51;6.47;;;5.17;;
10403;SDS011;5248;47.374;8.486;2023-04-03T05:12:17;5.60;;;5.20;;
10403;SDS011;5248;47.374;8.486;2023-04-03T05:14:45;6.03;;;5.43;;
10403;SDS011;5248;47.374;8.486;2023-04-03T05:17:12;6.10;;;5.60;;
10403;SDS011;5248;47.374;8.486;2023-04-03T05:19:38;5.50;;;5.07;;
10403;SDS011;5248;47.374;8.486;2023-04-03T05:22:04;6.53;;;5.87;;
10403;SDS011;5248;47.374;8.486;2023-04-03T05:24:31;5.93;;;5.20;;
10403;SDS011;5248;47.374;8.486;2023-04-03T05:26:58;6.20;;;5.70;;
10403;SDS011;5248;47.374;8.486;2023-04-03T05:29:24;6.00;;;5.50;;
10403;SDS011;5248;47.374;8.486;2023-04-03T05:31:52;5.33;;;4.83;;
10403;SDS011;5248;47.374;8.486;2023-04-03T05:34:19;5.57;;;5.07;;
10403;SDS011;5248;47.374;8.486;2023-04-03T05:36:45;5.13;;;4.43;;
10403;SDS011;5248;47.374;8.486;2023-04-03T05:39:15;5.30;;;4.80;;
10403;SDS011;5248;47.374;8.486;2023-04-03T05:41:42;4.73;;;4.43;;
10403;SDS011;5248;47.374;8.486;2023-04-03T05:44:08;4.67;;;4.27;;
10403;SDS011;5248;47.374;8.486;2023-04-03T05:46:35;4.87;;;4.57;;
10403;SDS011;5248;47.374;8.486;2023-04-03T05:49:03;4.77;;;4.40;;
10403;SDS011;5248;47.374;8.486;2023-04-03T05:51:30;4.60;;;4.20;;
10403;SDS011;5248;47.374;8.486;2023-04-03T05:54:01;5.03;;;4.63;;
10403;SDS011;5248;47.374;8.486;2023-04-03T05:56:32;5.03;;;4.63;;
10403;SDS011;5248;47.374;8.486;2023-04-03T05:58:59;4.53;;;4.20;;
10403;SDS011;5248;47.374;8.486;2023-04-03T06:01:25;5.03;;;4.63;;
10403;SDS011;5248;47.374;8.486;2023-04-03T06:03:52;4.70;;;4.30;;
10403;SDS011;5248;47.374;8.486;2023-04-03T06:06:20;4.60;;;4.20;;
10403;SDS011;5248;47.374;8.486;2023-04-03T06:08:47;4.70;;;4.30;;
10403;SDS011;5248;47.374;8.486;2023-04-03T06:11:13;5.60;;;4.80;;
10403;SDS011;5248;47.374;8.486;2023-04-03T06:13:40;4.40;;;4.10;;
10403;SDS011;5248;47.374;8.486;2023-04-03T06:16:06;4.57;;;4.27;;
10403;SDS011;5248;47.374;8.486;2023-04-03T06:18:34;4.93;;;4.43;;
10403;SDS011;5248;47.374;8.486;2023-04-03T06:21:01;4.73;;;4.33;;
10403;SDS011;5248;47.374;8.486;2023-04-03T06:23:29;4.57;;;3.93;;
10403;SDS011;5248;47.374;8.486;2023-04-03T06:25:55;4.43;;;4.03;;
10403;SDS011;5248;47.374;8.486;2023-04-03T06:28:22;5.10;;;4.60;;
10403;SDS011;5248;47.374;8.486;2023-04-03T06:30:48;4.47;;;4.17;;
10403;SDS011;5248;47.374;8.486;2023-04-03T06:33:15;4.53;;;4.10;;
10403;SDS011;5248;47.374;8.486;2023-04-03T06:35:41;4.30;;;3.90;;
10403;SDS011;5248;47.374;8.486;2023-04-03T06:38:09;4.10;;;3.80;;
10403;SDS011;5248;47.374;8.486;2023-04-03T06:40:37;4.60;;;4.20;;
10403;SDS011;5248;47.374;8.486;2023-04-03T06:43:03;4.60;;;4.20;;
10403;SDS011;5248;47.374;8.486;2023-04-03T06:45:30;4.37;;;4.07;;
10403;SDS011;5248;47.374;8.486;2023-04-03T06:47:57;4.23;;;3.93;;
10403;SDS011;5248;47.374;8.486;2023-04-03T06:50:23;4.33;;;3.93;;
10403;SDS011;5248;47.374;8.486;2023-04-03T06:52:51;4.20;;;3.90;;
10403;SDS011;5248;47.374;8.486;2023-04-03T06:55:17;4.40;;;4.00;;
10403;SDS011;5248;47.374;8.486;2023-04-03T06:57:45;5.03;;;4.57;;
10403;SDS011;5248;47.374;8.486;2023-04-03T07:00:12;4.20;;;3.80;;
10403;SDS011;5248;47.374;8.486;2023-04-03T07:02:41;4.30;;;4.00;;
10403;SDS011;5248;47.374;8.486;2023-04-03T07:05:07;4.00;;;3.70;;
10403;SDS011;5248;47.374;8.486;2023-04-03T07:07:35;4.30;;;3.90;;
10403;SDS011;5248;47.374;8.486;2023-04-03T07:10:03;3.70;;;3.50;;
10403;SDS011;5248;47.374;8.486;2023-04-03T07:12:30;3.80;;;3.50;;
10403;SDS011;5248;47.374;8.486;2023-04-03T07:15:00;4.23;;;3.73;;
10403;SDS011;5248;47.374;8.486;2023-04-03T07:17:28;4.07;;;3.37;;
10403;SDS011;5248;47.374;8.486;2023-04-03T07:19:54;3.83;;;3.53;;
10403;SDS011;5248;47.374;8.486;2023-04-03T07:22:20;4.70;;;3.67;;
10403;SDS011;5248;47.374;8.486;2023-04-03T07:24:47;3.50;;;3.30;;
10403;SDS011;5248;47.374;8.486;2023-04-03T07:27:14;3.47;;;3.27;;
10403;SDS011;5248;47.374;8.486;2023-04-03T07:29:40;3.73;;;3.30;;
10403;SDS011;5248;47.374;8.486;2023-04-03T07:32:09;6.00;;;3.40;;
10403;SDS011;5248;47.374;8.486;2023-04-03T07:34:37;3.43;;;3.07;;
10403;SDS011;5248;47.374;8.486;2023-04-03T07:37:04;3.80;;;3.50;;
10403;SDS011;5248;47.374;8.486;2023-04-03T07:39:31;3.57;;;3.37;;
10403;SDS011;5248;47.374;8.486;2023-04-03T07:41:58;4.97;;;3.20;;
10403;SDS011;5248;47.374;8.486;2023-04-03T07:44:25;3.83;;;3.63;;
10403;SDS011;5248;47.374;8.486;2023-04-03T07:46:52;4.00;;;3.70;;
10403;SDS011;5248;47.374;8.486;2023-04-03T07:49:21;3.40;;;3.20;;
10403;SDS011;5248;47.374;8.486;2023-04-03T07:51:49;3.27;;;3.00;;
10403;SDS011;5248;47.374;8.486;2023-04-03T07:54:16;3.67;;;3.43;;
10403;SDS011;5248;47.374;8.486;2023-04-03T07:56:42;3.57;;;3.23;;
10403;SDS011;5248;47.374;8.486;2023-04-03T07:59:10;3.87;;;3.67;;
10403;SDS011;5248;47.374;8.486;2023-04-03T08:01:36;3.70;;;3.40;;
10403;SDS011;5248;47.374;8.486;2023-04-03T08:04:03;3.97;;;3.50;;
10403;SDS011;5248;47.374;8.486;2023-04-03T08:06:31;4.57;;;3.20;;
10403;SDS011;5248;47.374;8.486;2023-04-03T08:09:00;3.97;;;3.30;;
10403;SDS011;5248;47.374;8.486;2023-04-03T08:11:28;4.93;;;3.57;;
10403;SDS011;5248;47.374;8.486;2023-04-03T08:13:57;4.80;;;3.13;;
10403;SDS011;5248;47.374;8.486;2023-04-03T08:16:23;3.20;;;3.00;;
10403;SDS011;5248;47.374;8.486;2023-04-03T08:18:53;3.17;;;2.87;;
10403;SDS011;5248;47.374;8.486;2023-04-03T08:21:20;3.10;;;2.90;;
10403;SDS011;5248;47.374;8.486;2023-04-03T08:23:49;5.27;;;3.20;;
10403;SDS011;5248;47.374;8.486;2023-04-03T08:26:16;3.63;;;3.10;;
10403;SDS011;5248;47.374;8.486;2023-04-03T08:28:45;3.50;;;3.20;;
10403;SDS011;5248;47.374;8.486;2023-04-03T08:31:13;3.30;;;3.00;;
10403;SDS011;5248;47.374;8.486;2023-04-03T08:33:43;4.13;;;2.90;;
10403;SDS011;5248;47.374;8.486;2023-04-03T08:36:16;5.23;;;3.40;;
10403;SDS011;5248;47.374;8.486;2023-04-03T08:38:43;3.33;;;3.13;;
10403;SDS011;5248;47.374;8.486;2023-04-03T08:41:13;3.43;;;3.23;;
10403;SDS011;5248;47.374;8.486;2023-04-03T08:43:44;2.90;;;2.70;;
10403;SDS011;5248;47.374;8.486;2023-04-03T08:46:26;2.77;;;2.63;;
10403;SDS011;5248;47.374;8.486;2023-04-03T08:49:16;3.37;;;2.97;;
10403;SDS011;5248;47.374;8.486;2023-04-03T08:51:47;5.87;;;3.27;;
10403;SDS011;5248;47.374;8.486;2023-04-03T08:54:18;3.17;;;2.87;;
10403;SDS011;5248;47.374;8.486;2023-04-03T08:56:51;3.50;;;3.20;;
10403;SDS011;5248;47.374;8.486;2023-04-03T08:59:19;4.53;;;3.30;;
10403;SDS011;5248;47.374;8.486;2023-04-03T09:01:53;3.20;;;2.97;;
10403;SDS011;5248;47.374;8.486;2023-04-03T09:04:20;3.33;;;2.90;;
10403;SDS011;5248;47.374;8.486;2023-04-03T09:06:48;3.57;;;3.27;;
10403;SDS011;5248;47.374;8.486;2023-04-03T09:09:21;3.20;;;3.00;;
10403;SDS011;5248;47.374;8.486;2023-04-03T09:11:57;3.50;;;3.20;;
10403;SDS011;5248;47.374;8.486;2023-04-03T09:14:29;3.17;;;2.83;;
10403;SDS011;5248;47.374;8.486;2023-04-03T09:17:02;3.50;;;3.20;;
10403;SDS011;5248;47.374;8.486;2023-04-03T09:19:33;3.37;;;3.10;;
10403;SDS011;5248;47.374;8.486;2023-04-03T09:22:03;3.10;;;2.90;;
10403;SDS011;5248;47.374;8.486;2023-04-03T09:24:35;2.80;;;2.60;;
10403;SDS011;5248;47.374;8.486;2023-04-03T09:27:05;3.43;;;3.13;;
10403;SDS011;5248;47.374;8.486;2023-04-03T09:29:34;3.13;;;2.93;;
10403;SDS011;5248;47.374;8.486;2023-04-03T09:32:12;3.30;;;3.00;;
10403;SDS011;5248;47.374;8.486;2023-04-03T09:34:45;3.50;;;3.20;;
10403;SDS011;5248;47.374;8.486;2023-04-03T09:37:12;3.30;;;3.10;;
10403;SDS011;5248;47.374;8.486;2023-04-03T09:40:00;2.90;;;2.70;;
10403;SDS011;5248;47.374;8.486;2023-04-03T09:42:28;3.10;;;2.90;;
10403;SDS011;5248;47.374;8.486;2023-04-03T09:44:56;3.73;;;3.20;;
10403;SDS011;5248;47.374;8.486;2023-04-03T09:47:25;3.53;;;3.13;;
10403;SDS011;5248;47.374;8.486;2023-04-03T09:49:56;3.80;;;3.23;;
10403;SDS011;5248;47.374;8.486;2023-04-03T09:52:37;4.10;;;3.23;;
10403;SDS011;5248;47.374;8.486;2023-04-03T09:55:06;3.40;;;3.10;;
10403;SDS011;5248;47.374;8.486;2023-04-03T09:57:34;3.43;;;3.13;;
10403;SDS011;5248;47.374;8.486;2023-04-03T10:00:01;3.50;;;3.20;;
10403;SDS011;5248;47.374;8.486;2023-04-03T10:02:32;3.33;;;3.03;;
10403;SDS011;5248;47.374;8.486;2023-04-03T10:05:01;4.27;;;3.07;;
10403;SDS011;5248;47.374;8.486;2023-04-03T10:07:30;3.70;;;3.10;;
10403;SDS011;5248;47.374;8.486;2023-04-03T10:09:59;3.10;;;2.90;;
10403;SDS011;5248;47.374;8.486;2023-04-03T10:12:26;3.40;;;3.13;;
10403;SDS011;5248;47.374;8.486;2023-04-03T10:14:59;3.20;;;3.00;;
10403;SDS011;5248;47.374;8.486;2023-04-03T10:17:30;3.50;;;3.20;;
10403;SDS011;5248;47.374;8.486;2023-04-03T10:20:02;3.50;;;3.20;;
10403;SDS011;5248;47.374;8.486;2023-04-03T10:22:37;4.17;;;2.83;;
10403;SDS011;5248;47.374;8.486;2023-04-03T10:25:10;4.83;;;3.20;;
10403;SDS011;5248;47.374;8.486;2023-04-03T10:27:43;3.40;;;3.20;;
10403;SDS011;5248;47.374;8.486;2023-04-03T10:30:19;3.47;;;3.23;;
10403;SDS011;5248;47.374;8.486;2023-04-03T10:32:54;3.17;;;2.97;;
10403;SDS011;5248;47.374;8.486;2023-04-03T10:35:27;3.23;;;3.03;;
10403;SDS011;5248;47.374;8.486;2023-04-03T10:38:01;3.23;;;2.90;;
10403;SDS011;5248;47.374;8.486;2023-04-03T10:40:33;2.90;;;2.70;;
10403;SDS011;5248;47.374;8.486;2023-04-03T10:43:04;3.40;;;3.10;;
10403;SDS011;5248;47.374;8.486;2023-04-03T10:45:41;2.70;;;2.60;;
10403;SDS011;5248;47.374;8.486;2023-04-03T10:48:18;3.30;;;2.80;;
10403;SDS011;5248;47.374;8.486;2023-04-03T10:50:56;3.10;;;2.90;;
10403;SDS011;5248;47.374;8.486;2023-04-03T10:53:27;3.30;;;3.00;;
10403;SDS011;5248;47.374;8.486;2023-04-03T10:55:58;3.17;;;2.83;;
10403;SDS011;5248;47.374;8.486;2023-04-03T10:58:30;3.17;;;2.97;;
10403;SDS011;5248;47.374;8.486;2023-04-03T11:01:01;3.10;;;2.90;;
10403;SDS011;5248;47.374;8.486;2023-04-03T11:03:32;3.20;;;2.90;;
10403;SDS011;5248;47.374;8.486;2023-04-03T11:06:01;3.10;;;2.90;;
10403;SDS011;5248;47.374;8.486;2023-04-03T11:08:28;3.03;;;2.83;;
10403;SDS011;5248;47.374;8.486;2023-04-03T11:11:00;3.03;;;2.83;;
10403;SDS011;5248;47.374;8.486;2023-04-03T11:13:28;3.20;;;3.00;;
10403;SDS011;5248;47.374;8.486;2023-04-03T11:15:57;4.40;;;3.13;;
10403;SDS011;5248;47.374;8.486;2023-04-03T11:18:27;4.33;;;3.20;;
10403;SDS011;5248;47.374;8.486;2023-04-03T11:21:00;3.37;;;3.13;;
10403;SDS011;5248;47.374;8.486;2023-04-03T11:23:30;3.30;;;3.10;;
10403;SDS011;5248;47.374;8.486;2023-04-03T11:26:01;3.20;;;3.00;;
10403;SDS011;5248;47.374;8.486;2023-04-03T11:28:34;7.03;;;3.43;;
10403;SDS011;5248;47.374;8.486;2023-04-03T11:31:02;3.13;;;2.90;;
10403;SDS011;5248;47.374;8.486;2023-04-03T11:33:43;3.77;;;3.10;;
10403;SDS011;5248;47.374;8.486;2023-04-03T11:36:18;3.43;;;3.23;;
10403;SDS011;5248;47.374;8.486;2023-04-03T11:38:47;3.23;;;3.03;;
10403;SDS011;5248;47.374;8.486;2023-04-03T11:41:16;4.13;;;3.20;;
10403;SDS011;5248;47.374;8.486;2023-04-03T11:43:56;4.03;;;3.67;;
10403;SDS011;5248;47.374;8.486;2023-04-03T11:46:34;3.60;;;3.30;;
10403;SDS011;5248;47.374;8.486;2023-04-03T11:55:43;3.67;;;3.40;;
10403;SDS011;5248;47.374;8.486;2023-04-03T11:58:20;3.70;;;3.40;;
10403;SDS011;5248;47.374;8.486;2023-04-03T12:00:55;3.50;;;3.20;;
10403;SDS011;5248;47.374;8.486;2023-04-03T12:03:32;3.40;;;3.10;;
10403;SDS011;5248;47.374;8.486;2023-04-03T12:09:26;3.07;;;2.87;;
10403;SDS011;5248;47.374;8.486;2023-04-03T12:11:54;3.07;;;2.87;;
10403;SDS011;5248;47.374;8.486;2023-04-03T12:14:22;3.50;;;3.20;;
10403;SDS011;5248;47.374;8.486;2023-04-03T12:16:49;4.40;;;3.40;;
10403;SDS011;5248;47.374;8.486;2023-04-03T12:22:11;3.57;;;3.37;;
10403;SDS011;5248;47.374;8.486;2023-04-03T12:24:43;3.93;;;3.57;;
10403;SDS011;5248;47.374;8.486;2023-04-03T12:27:25;3.73;;;3.43;;
10403;SDS011;5248;47.374;8.486;2023-04-03T12:29:55;3.87;;;3.53;;
10403;SDS011;5248;47.374;8.486;2023-04-03T12:32:32;3.70;;;3.40;;
10403;SDS011;5248;47.374;8.486;2023-04-03T12:35:10;4.77;;;3.50;;
10403;SDS011;5248;47.374;8.486;2023-04-03T12:40:49;4.90;;;3.50;;
10403;SDS011;5248;47.374;8.486;2023-04-03T12:43:31;4.73;;;3.77;;
10403;SDS011;5248;47.374;8.486;2023-04-03T12:46:04;4.83;;;3.20;;
10403;SDS011;5248;47.374;8.486;2023-04-03T12:48:37;3.97;;;3.67;;
10403;SDS011;5248;47.374;8.486;2023-04-03T12:51:05;3.63;;;3.33;;
10403;SDS011;5248;47.374;8.486;2023-04-03T12:53:32;3.57;;;3.20;;
10403;SDS011;5248;47.374;8.486;2023-04-03T12:58:46;4.33;;;3.60;;
10403;SDS011;5248;47.374;8.486;2023-04-03T13:01:13;3.20;;;3.00;;
10403;SDS011;5248;47.374;8.486;2023-04-03T13:03:50;3.60;;;3.30;;
10403;SDS011;5248;47.374;8.486;2023-04-03T13:06:19;3.67;;;3.37;;
10403;SDS011;5248;47.374;8.486;2023-04-03T13:08:48;3.43;;;3.13;;
10403;SDS011;5248;47.374;8.486;2023-04-03T13:11:15;3.73;;;3.43;;
10403;SDS011;5248;47.374;8.486;2023-04-03T13:13:54;3.20;;;3.00;;
10403;SDS011;5248;47.374;8.486;2023-04-03T13:16:22;2.80;;;2.60;;
10403;SDS011;5248;47.374;8.486;2023-04-03T13:18:49;2.90;;;2.70;;
10403;SDS011;5248;47.374;8.486;2023-04-03T13:21:18;4.37;;;3.10;;
10403;SDS011;5248;47.374;8.486;2023-04-03T13:23:47;5.77;;;3.33;;
10403;SDS011;5248;47.374;8.486;2023-04-03T13:26:15;3.43;;;3.20;;
10403;SDS011;5248;47.374;8.486;2023-04-03T13:28:42;3.13;;;2.93;;
10403;SDS011;5248;47.374;8.486;2023-04-03T13:31:18;4.13;;;2.90;;
10403;SDS011;5248;47.374;8.486;2023-04-03T13:33:52;3.50;;;2.93;;
10403;SDS011;5248;47.374;8.486;2023-04-03T13:36:21;2.60;;;2.43;;
10403;SDS011;5248;47.374;8.486;2023-04-03T13:38:57;3.00;;;2.80;;
10403;SDS011;5248;47.374;8.486;2023-04-03T13:41:26;3.20;;;3.00;;
10403;SDS011;5248;47.374;8.486;2023-04-03T13:43:56;2.83;;;2.63;;
10403;SDS011;5248;47.374;8.486;2023-04-03T13:46:25;3.90;;;3.10;;
10403;SDS011;5248;47.374;8.486;2023-04-03T13:48:53;2.77;;;2.60;;
10403;SDS011;5248;47.374;8.486;2023-04-03T13:51:21;3.30;;;3.00;;
10403;SDS011;5248;47.374;8.486;2023-04-03T13:53:50;3.60;;;3.30;;
10403;SDS011;5248;47.374;8.486;2023-04-03T13:56:24;2.80;;;2.60;;
10403;SDS011;5248;47.374;8.486;2023-04-03T13:58:54;3.43;;;2.90;;
10403;SDS011;5248;47.374;8.486;2023-04-03T14:01:38;3.20;;;3.00;;
10403;SDS011;5248;47.374;8.486;2023-04-03T14:04:12;2.87;;;2.70;;
10403;SDS011;5248;47.374;8.486;2023-04-03T14:06:40;2.80;;;2.60;;
10403;SDS011;5248;47.374;8.486;2023-04-03T14:09:07;3.10;;;2.90;;
10403;SDS011;5248;47.374;8.486;2023-04-03T14:11:34;3.17;;;2.90;;
10403;SDS011;5248;47.374;8.486;2023-04-03T14:14:01;5.37;;;3.30;;
10403;SDS011;5248;47.374;8.486;2023-04-03T14:16:32;3.07;;;2.87;;
10403;SDS011;5248;47.374;8.486;2023-04-03T14:19:03;3.00;;;2.80;;
10403;SDS011;5248;47.374;8.486;2023-04-03T14:21:30;3.23;;;2.80;;
10403;SDS011;5248;47.374;8.486;2023-04-03T14:23:57;3.17;;;2.90;;
10403;SDS011;5248;47.374;8.486;2023-04-03T14:26:23;3.80;;;2.87;;
10403;SDS011;5248;47.374;8.486;2023-04-03T14:28:52;3.20;;;3.00;;
10403;SDS011;5248;47.374;8.486;2023-04-03T14:31:20;2.93;;;2.73;;
10403;SDS011;5248;47.374;8.486;2023-04-03T14:33:49;3.27;;;3.00;;
10403;SDS011;5248;47.374;8.486;2023-04-03T14:36:16;3.27;;;2.97;;
10403;SDS011;5248;47.374;8.486;2023-04-03T14:38:44;3.00;;;2.80;;
10403;SDS011;5248;47.374;8.486;2023-04-03T14:41:12;2.93;;;2.60;;
10403;SDS011;5248;47.374;8.486;2023-04-03T14:43:39;2.90;;;2.70;;
10403;SDS011;5248;47.374;8.486;2023-04-03T14:46:09;2.90;;;2.70;;
10403;SDS011;5248;47.374;8.486;2023-04-03T14:48:39;4.03;;;2.93;;
10403;SDS011;5248;47.374;8.486;2023-04-03T14:51:08;3.43;;;3.13;;
10403;SDS011;5248;47.374;8.486;2023-04-03T14:53:35;2.80;;;2.60;;
10403;SDS011;5248;47.374;8.486;2023-04-03T14:56:02;2.73;;;2.53;;
10403;SDS011;5248;47.374;8.486;2023-04-03T14:58:31;2.93;;;2.73;;
10403;SDS011;5248;47.374;8.486;2023-04-03T15:00:58;3.10;;;2.90;;
10403;SDS011;5248;47.374;8.486;2023-04-03T15:03:24;2.90;;;2.70;;
10403;SDS011;5248;47.374;8.486;2023-04-03T15:05:51;3.13;;;2.90;;
10403;SDS011;5248;47.374;8.486;2023-04-03T15:08:20;2.80;;;2.70;;
10403;SDS011;5248;47.374;8.486;2023-04-03T15:10:48;3.03;;;2.83;;
10403;SDS011;5248;47.374;8.486;2023-04-03T15:13:17;2.80;;;2.60;;
10403;SDS011;5248;47.374;8.486;2023-04-03T15:15:45;3.10;;;2.90;;
10403;SDS011;5248;47.374;8.486;2023-04-03T15:18:14;2.90;;;2.70;;
10403;SDS011;5248;47.374;8.486;2023-04-03T15:20:43;2.87;;;2.67;;
10403;SDS011;5248;47.374;8.486;2023-04-03T15:23:11;2.77;;;2.57;;
10403;SDS011;5248;47.374;8.486;2023-04-03T15:25:42;3.03;;;2.80;;
10403;SDS011;5248;47.374;8.486;2023-04-03T15:28:08;4.37;;;2.50;;
10403;SDS011;5248;47.374;8.486;2023-04-03T15:30:36;2.90;;;2.70;;
10403;SDS011;5248;47.374;8.486;2023-04-03T15:33:05;2.70;;;2.50;;